Time;durP1;ratioP1;P1;durP2;ratioP2;P2;SDS_P1;SDS_P2;PMS_P1;PMS_P2;Temp;Humidity;BMP_temperature;BMP_pressure;BME280_temperature;BME280_humidity;BME280_pressure;Samples;Min_cycle;Max_cycle;Signal;HPM_P1;HPM_P2
2021/11/23 00:00:25;;;;;;;;;;;;;;;;;;5095136;28;19925;-69
2021/11/23 00:02:54;;;;;;;;;;;;;;;;;;5093190;28;20011;-68
2021/11/23 00:05:21;;;;;;;;;;;;;;;;;;5090161;28;19954;-69
2021/11/23 00:07:48;;;;;;;;;;;;;;;;;;5086183;28;19963;-68
2021/11/23 00:10:15;;;;;;;;;;;;;;;;;;5087631;28;20398;-69
2021/11/23 00:12:43;;;;;;;;;;;;;;;;;;5090012;28;19934;-67
2021/11/23 00:15:12;;;;;;;;;;;;;;;;;;5092836;28;20149;-68
2021/11/23 00:17:39;;;;;;;;;;;;;;;;;;5091972;28;20423;-68
2021/11/23 00:20:06;;;;;;;;;;;;;;;;;;5094450;28;19924;-69
2021/11/23 00:22:33;;;;;;;;;;;;;;;;;;5095056;28;20110;-67
2021/11/23 00:25:00;;;;;;;;;;;;;;;;;;5094091;28;19928;-67
2021/11/23 00:27:27;;;;;;;;;;;;;;;;;;5091970;28;19930;-67
2021/11/23 00:29:54;;;;;;;;;;;;;;;;;;5092162;28;19924;-68
2021/11/23 00:32:21;;;;;;;;;;;;;;;;;;5090562;28;19987;-69
2021/11/23 00:34:48;;;;;;;;;;;;;;;;;;5090506;28;19930;-67
2021/11/23 00:37:15;;;;;;;;;;;;;;;;;;5093561;28;19931;-68
2021/11/23 00:39:42;;;;;;;;;;;;;;;;;;5090576;28;19928;-68
2021/11/23 00:42:09;;;;;;;;;;;;;;;;;;5089728;28;19946;-67
2021/11/23 00:44:36;;;;;;;;;;;;;;;;;;5091499;28;19932;-69
2021/11/23 00:47:03;;;;;;;;;;;;;;;;;;5092515;28;19924;-68
2021/11/23 00:49:30;;;;;;;;;;;;;;;;;;5093196;28;20329;-69
2021/11/23 00:51:57;;;;;;;;;;;;;;;;;;5093009;28;19924;-68
2021/11/23 00:54:23;;;;;;;;;;;;;;;;;;5089056;28;19925;-68
2021/11/23 00:56:50;;;;;;;;;;;;;;;;;;5087453;28;19935;-68
2021/11/23 00:59:17;;;;;;;;;;;;;;;;;;5093746;28;19935;-69
2021/11/23 01:01:44;;;;;;;;;;;;;;;;;;5084896;28;20377;-68
2021/11/23 01:04:11;;;;;;;;;;;;;;;;;;5086991;28;19924;-68
2021/11/23 01:06:38;;;;;;;;;;;;;;;;;;5090104;28;19924;-68
2021/11/23 01:09:05;;;;;;;;;;;;;;;;;;5089463;28;19924;-68
2021/11/23 01:11:32;;;;;;;;;;;;;;;;;;5089468;28;19967;-66
2021/11/23 01:14:00;;;;;;;;;;;;;;;;;;5084719;28;19931;-67
2021/11/23 01:16:27;;;;;;;;;;;;;;;;;;5087983;28;19931;-67
2021/11/23 01:18:54;;;;;;;;;;;;;;;;;;5085733;28;19931;-68
2021/11/23 01:21:21;;;;;;;;;;;;;;;;;;5086930;28;19928;-68
2021/11/23 01:23:48;;;;;;;;;;;;;;;;;;5091328;28;20295;-65
2021/11/23 01:26:15;;;;;;;;;;;;;;;;;;5087913;28;19934;-67
2021/11/23 01:28:42;;;;;;;;;;;;;;;;;;5088450;28;20078;-68
2021/11/23 01:31:09;;;;;;;;;;;;;;;;;;5092359;28;20313;-67
2021/11/23 01:33:36;;;;;;;;;;;;;;;;;;5092161;28;19924;-67
2021/11/23 01:36:03;;;;;;;;;;;;;;;;;;5089727;28;19924;-67
2021/11/23 01:38:31;;;;;;;;;;;;;;;;;;5092696;28;19931;-68
2021/11/23 01:40:57;;;;;;;;;;;;;;;;;;5090518;28;19951;-67
2021/11/23 01:43:24;;;;;;;;;;;;;;;;;;5091198;28;19924;-67
2021/11/23 01:45:51;;;;;;;;;;;;;;;;;;5091491;28;19924;-68
2021/11/23 01:48:18;;;;;;;;;;;;;;;;;;5087831;28;19959;-66
2021/11/23 01:50:45;;;;;;;;;;;;;;;;;;5092382;28;19924;-67
2021/11/23 01:53:12;;;;;;;;;;;;;;;;;;5086356;28;19924;-67
2021/11/23 01:55:40;;;;;;;;;;;;;;;;;;5093463;28;20403;-68
2021/11/23 01:58:07;;;;;;;;;;;;;;;;;;5087950;28;19978;-68
2021/11/23 02:00:34;;;;;;;;;;;;;;;;;;5080639;28;19935;-66
2021/11/23 02:03:01;;;;;;;;;;;;;;;;;;5083854;28;19937;-67
2021/11/23 02:05:28;;;;;;;;;;;;;;;;;;5087202;28;20324;-66
2021/11/23 02:07:55;;;;;;;;;;;;;;;;;;5079765;28;20293;-66
2021/11/23 02:10:22;;;;;;;;;;;;;;;;;;5085434;28;19931;-67
2021/11/23 02:12:49;;;;;;;;;;;;;;;;;;5088801;28;19932;-67
2021/11/23 02:15:16;;;;;;;;;;;;;;;;;;5083318;28;19924;-68
2021/11/23 02:17:44;;;;;;;;;;;;;;;;;;5091400;28;19924;-68
2021/11/23 02:20:11;;;;;;;;;;;;;;;;;;5089023;28;19986;-69
2021/11/23 02:22:38;;;;;;;;;;;;;;;;;;5090862;28;19935;-67
2021/11/23 02:25:05;;;;;;;;;;;;;;;;;;5087434;28;19924;-67
2021/11/23 02:27:32;;;;;;;;;;;;;;;;;;5090109;28;19930;-67
2021/11/23 02:29:59;;;;;;;;;;;;;;;;;;5093919;28;19927;-68
2021/11/23 02:32:26;;;;;;;;;;;;;;;;;;5088311;28;20367;-68
2021/11/23 02:34:53;;;;;;;;;;;;;;;;;;5091443;28;19927;-68
2021/11/23 02:37:20;;;;;;;;;;;;;;;;;;5088770;28;19928;-68
2021/11/23 02:39:47;;;;;;;;;;;;;;;;;;5084074;28;19924;-68
2021/11/23 02:42:14;;;;;;;;;;;;;;;;;;5088830;28;20256;-69
2021/11/23 02:44:41;;;;;;;;;;;;;;;;;;5087125;28;19928;-66
2021/11/23 02:47:08;;;;;;;;;;;;;;;;;;5089326;28;19928;-66
2021/11/23 02:49:34;;;;;;;;;;;;;;;;;;5092297;28;19934;-68
2021/11/23 02:52:02;;;;;;;;;;;;;;;;;;5091616;28;20311;-67
2021/11/23 02:54:29;;;;;;;;;;;;;;;;;;5083304;28;19925;-66
2021/11/23 02:56:56;;;;;;;;;;;;;;;;;;5088622;28;19924;-69
2021/11/23 02:59:22;;;;;;;;;;;;;;;;;;5089505;28;19924;-68
2021/11/23 03:01:49;;;;;;;;;;;;;;;;;;5092094;28;20380;-68
2021/11/23 03:04:16;;;;;;;;;;;;;;;;;;5081716;28;19931;-67
2021/11/23 03:06:43;;;;;;;;;;;;;;;;;;5079676;28;19943;-68
2021/11/23 03:09:10;;;;;;;;;;;;;;;;;;5086122;28;19935;-68
2021/11/23 03:11:37;;;;;;;;;;;;;;;;;;5087839;28;19977;-69
2021/11/23 03:14:04;;;;;;;;;;;;;;;;;;5086614;28;19928;-67
2021/11/23 03:16:31;;;;;;;;;;;;;;;;;;5089594;28;20126;-67
2021/11/23 03:18:58;;;;;;;;;;;;;;;;;;5089059;28;19947;-67
2021/11/23 03:21:25;;;;;;;;;;;;;;;;;;5086640;28;19924;-67
2021/11/23 03:23:52;;;;;;;;;;;;;;;;;;5091240;28;19924;-68
2021/11/23 03:26:20;;;;;;;;;;;;;;;;;;5090359;28;19924;-67
2021/11/23 03:28:47;;;;;;;;;;;;;;;;;;5092654;28;19924;-67
2021/11/23 03:31:14;;;;;;;;;;;;;;;;;;5087146;28;20521;-67
2021/11/23 03:33:41;;;;;;;;;;;;;;;;;;5087062;28;20211;-66
2021/11/23 03:36:08;;;;;;;;;;;;;;;;;;5087285;28;19931;-68
2021/11/23 03:38:35;;;;;;;;;;;;;;;;;;5086210;28;19924;-66
2021/11/23 03:41:02;;;;;;;;;;;;;;;;;;5091615;28;19931;-71
2021/11/23 03:43:29;;;;;;;;;;;;;;;;;;5086496;28;19931;-67
2021/11/23 03:45:56;;;;;;;;;;;;;;;;;;5084370;28;19969;-67
2021/11/23 03:48:23;;;;;;;;;;;;;;;;;;5090974;28;19924;-69
2021/11/23 03:50:49;;;;;;;;;;;;;;;;;;5089531;28;19931;-69
2021/11/23 03:53:16;;;;;;;;;;;;;;;;;;5085211;28;19931;-67
2021/11/23 03:55:49;;;;;;;;;;;;;;;;;;5086178;28;19925;-65
2021/11/23 03:58:15;;;;;;;;;;;;;;;;;;5087882;28;19970;-67
2021/11/23 04:00:42;;;;;;;;;;;;;;;;;;5085005;28;19931;-66
2021/11/23 04:03:09;;;;;;;;;;;;;;;;;;5085253;28;19935;-67
2021/11/23 04:05:36;;;;;;;;;;;;;;;;;;5089296;28;19924;-68
2021/11/23 04:08:03;;;;;;;;;;;;;;;;;;5090883;28;19924;-68
2021/11/23 04:10:30;;;;;;;;;;;;;;;;;;5085887;28;19924;-67
2021/11/23 04:12:57;;;;;;;;;;;;;;;;;;5082158;28;19940;-68
2021/11/23 04:15:24;;;;;;;;;;;;;;;;;;5088447;28;19924;-68
2021/11/23 04:17:52;;;;;;;;;;;;;;;;;;5091971;28;20043;-66
2021/11/23 04:20:19;;;;;;;;;;;;;;;;;;5087383;28;19925;-66
2021/11/23 04:22:46;;;;;;;;;;;;;;;;;;5081473;28;19924;-67
2021/11/23 04:25:13;;;;;;;;;;;;;;;;;;5085110;28;19931;-66
2021/11/23 04:27:40;;;;;;;;;;;;;;;;;;5092331;28;20327;-66
2021/11/23 04:30:07;;;;;;;;;;;;;;;;;;5095630;28;19968;-69
2021/11/23 04:32:34;;;;;;;;;;;;;;;;;;5104079;22;19931;-66
2021/11/23 04:35:01;;;;;;;;;;;;;;;;;;5094439;28;19924;-67
2021/11/23 04:37:27;;;;;;;;;;;;;;;;;;5091451;28;20599;-66
2021/11/23 04:39:54;;;;;;;;;;;;;;;;;;5092639;28;19931;-67
2021/11/23 04:42:21;;;;;;;;;;;;;;;;;;5095700;28;19924;-68
2021/11/23 04:44:48;;;;;;;;;;;;;;;;;;5091718;28;20284;-67
2021/11/23 04:47:15;;;;;;;;;;;;;;;;;;5089299;28;19924;-66
2021/11/23 04:49:42;;;;;;;;;;;;;;;;;;5079554;28;19935;-66
2021/11/23 04:52:09;;;;;;;;;;;;;;;;;;5096004;28;19971;-66
2021/11/23 04:54:36;;;;;;;;;;;;;;;;;;5093212;28;19929;-66
2021/11/23 04:57:03;;;;;;;;;;;;;;;;;;5103849;28;20004;-66
2021/11/23 04:59:30;;;;;;;;;;;;;;;;;;5096125;28;19932;-66
2021/11/23 05:01:57;;;;;;;;;;;;;;;;;;5086268;28;19924;-67
2021/11/23 05:04:25;;;;;;;;;;;;;;;;;;5095666;28;19924;-66
2021/11/23 05:06:52;;;;;;;;;;;;;;;;;;5092272;28;19971;-66
2021/11/23 05:09:19;;;;;;;;;;;;;;;;;;5096195;28;19928;-67
2021/11/23 05:11:48;;;;;;;;;;;;;;;;;;5091240;28;19924;-67
2021/11/23 05:14:15;;;;;;;;;;;;;;;;;;5089005;28;19924;-67
2021/11/23 05:16:42;;;;;;;;;;;;;;;;;;5095797;28;19930;-67
2021/11/23 05:19:09;;;;;;;;;;;;;;;;;;5095295;28;19928;-67
2021/11/23 05:21:36;;;;;;;;;;;;;;;;;;5096647;28;20276;-66
2021/11/23 05:24:03;;;;;;;;;;;;;;;;;;5088648;28;19924;-66
2021/11/23 05:26:30;;;;;;;;;;;;;;;;;;5085378;28;19935;-67
2021/11/23 05:28:57;;;;;;;;;;;;;;;;;;5085560;28;19924;-66
2021/11/23 05:31:24;;;;;;;;;;;;;;;;;;5094166;28;19924;-66
2021/11/23 05:33:51;;;;;;;;;;;;;;;;;;5113315;27;19950;-66
2021/11/23 05:36:17;;;;;;;;;;;;;;;;;;5111527;28;19931;-66
2021/11/23 05:38:46;;;;;;;;;;;;;;;;;;5115002;28;19923;-66
2021/11/23 05:41:12;;;;;;;;;;;;;;;;;;5114507;27;19930;-66
2021/11/23 05:43:39;;;;;;;;;;;;;;;;;;5113127;28;19930;-66
2021/11/23 05:46:06;;;;;;;;;;;;;;;;;;5115387;28;19931;-66
2021/11/23 05:48:33;;;;;;;;;;;;;;;;;;5112397;28;19924;-68
2021/11/23 05:51:04;;;;;;;;;;;;;;;;;;5113621;28;19930;-66
2021/11/23 05:53:30;;;;;;;;;;;;;;;;;;5110475;28;20019;-66
2021/11/23 05:55:57;;;;;;;;;;;;;;;;;;5114352;27;19924;-67
2021/11/23 05:58:24;;;;;;;;;;;;;;;;;;5111637;28;19931;-66
2021/11/23 06:00:51;;;;;;;;;;;;;;;;;;5113356;28;19930;-66
2021/11/23 06:03:18;;;;;;;;;;;;;;;;;;5108557;27;20307;-66
2021/11/23 06:05:45;;;;;;;;;;;;;;;;;;5115178;27;19924;-66
2021/11/23 06:08:12;;;;;;;;;;;;;;;;;;5114822;28;19923;-66
2021/11/23 06:10:39;;;;;;;;;;;;;;;;;;5112082;28;19927;-67
2021/11/23 06:13:07;;;;;;;;;;;;;;;;;;5110546;28;19924;-66
2021/11/23 06:15:34;;;;;;;;;;;;;;;;;;5102648;28;19924;-67
2021/11/23 06:18:02;;;;;;;;;;;;;;;;;;5104287;28;19942;-69
2021/11/23 06:20:29;;;;;;;;;;;;;;;;;;5102686;27;20288;-68
2021/11/23 06:22:56;;;;;;;;;;;;;;;;;;5102397;28;19924;-67
2021/11/23 06:25:23;;;;;;;;;;;;;;;;;;5100048;27;19942;-67
2021/11/23 06:27:50;;;;;;;;;;;;;;;;;;5102997;28;19947;-67
2021/11/23 06:30:17;;;;;;;;;;;;;;;;;;5107347;28;19931;-67
2021/11/23 06:32:44;;;;;;;;;;;;;;;;;;5101524;27;19930;-67
2021/11/23 06:35:11;;;;;;;;;;;;;;;;;;5102470;28;19938;-67
2021/11/23 06:37:38;;;;;;;;;;;;;;;;;;5112686;28;19930;-67
2021/11/23 06:40:05;;;;;;;;;;;;;;;;;;5106823;27;19924;-66
2021/11/23 06:42:32;;;;;;;;;;;;;;;;;;5109822;28;19924;-68
2021/11/23 06:44:59;;;;;;;;;;;;;;;;;;5111399;27;19934;-67
2021/11/23 06:47:26;;;;;;;;;;;;;;;;;;5100061;27;19931;-67
2021/11/23 06:49:53;;;;;;;;;;;;;;;;;;5104295;28;19939;-67
2021/11/23 06:52:22;;;;;;;;;;;;;;;;;;5106259;28;19976;-67
2021/11/23 06:54:49;;;;;;;;;;;;;;;;;;5103845;27;19934;-67
2021/11/23 06:57:16;;;;;;;;;;;;;;;;;;5102665;28;19923;-67
2021/11/23 06:59:44;;;;;;;;;;;;;;;;;;5105247;28;19924;-65
2021/11/23 07:02:11;;;;;;;;;;;;;;;;;;5102052;28;19924;-66
2021/11/23 07:04:38;;;;;;;;;;;;;;;;;;5108271;28;20437;-67
2021/11/23 07:07:05;;;;;;;;;;;;;;;;;;5104310;28;20007;-66
2021/11/23 07:09:32;;;;;;;;;;;;;;;;;;5099069;28;20330;-66
2021/11/23 07:11:59;;;;;;;;;;;;;;;;;;5102838;28;19928;-67
2021/11/23 07:14:26;;;;;;;;;;;;;;;;;;5103186;28;20026;-66
2021/11/23 07:16:53;;;;;;;;;;;;;;;;;;5103630;28;19924;-66
2021/11/23 07:19:20;;;;;;;;;;;;;;;;;;5103629;28;19985;-66
2021/11/23 07:21:47;;;;;;;;;;;;;;;;;;5101821;28;19930;-66
2021/11/23 07:24:14;;;;;;;;;;;;;;;;;;5098310;28;19924;-66
2021/11/23 07:26:41;;;;;;;;;;;;;;;;;;5100163;28;20406;-66
2021/11/23 07:29:08;;;;;;;;;;;;;;;;;;5099535;28;19923;-66
2021/11/23 07:31:35;;;;;;;;;;;;;;;;;;5106418;28;19927;-67
2021/11/23 07:34:02;;;;;;;;;;;;;;;;;;5107041;28;19959;-67
2021/11/23 07:36:29;;;;;;;;;;;;;;;;;;5104168;28;19928;-66
2021/11/23 07:38:57;;;;;;;;;;;;;;;;;;5107832;28;20457;-66
2021/11/23 07:41:24;;;;;;;;;;;;;;;;;;5100181;28;20310;-68
2021/11/23 07:43:51;;;;;;;;;;;;;;;;;;5101520;28;19924;-67
2021/11/23 07:46:18;;;;;;;;;;;;;;;;;;5099903;28;19988;-67
2021/11/23 07:48:45;;;;;;;;;;;;;;;;;;5096484;28;19928;-66
2021/11/23 07:51:12;;;;;;;;;;;;;;;;;;5102248;28;19936;-67
2021/11/23 07:53:39;;;;;;;;;;;;;;;;;;5100124;28;19934;-66
2021/11/23 07:56:06;;;;;;;;;;;;;;;;;;5102992;28;20402;-66
2021/11/23 07:58:33;;;;;;;;;;;;;;;;;;5105852;28;20399;-66
2021/11/23 08:01:00;;;;;;;;;;;;;;;;;;5101966;28;19951;-66
2021/11/23 08:03:27;;;;;;;;;;;;;;;;;;5098311;28;19924;-66
2021/11/23 08:05:54;;;;;;;;;;;;;;;;;;5098761;28;19939;-65
2021/11/23 08:08:21;;;;;;;;;;;;;;;;;;5099024;28;19934;-67
2021/11/23 08:10:48;;;;;;;;;;;;;;;;;;5099466;28;20332;-66
2021/11/23 08:13:16;;;;;;;;;;;;;;;;;;5102056;28;19923;-66
2021/11/23 08:15:42;;;;;;;;;;;;;;;;;;5104214;28;19938;-66
2021/11/23 08:18:09;;;;;;;;;;;;;;;;;;5105965;28;19938;-65
2021/11/23 08:20:36;;;;;;;;;;;;;;;;;;5098629;28;19931;-67
2021/11/23 08:23:03;;;;;;;;;;;;;;;;;;5098423;28;19935;-68
2021/11/23 08:25:30;;;;;;;;;;;;;;;;;;5099743;28;19931;-67
2021/11/23 08:27:57;;;;;;;;;;;;;;;;;;5107120;28;20375;-66
2021/11/23 08:30:24;;;;;;;;;;;;;;;;;;5098519;28;19923;-67
2021/11/23 08:32:51;;;;;;;;;;;;;;;;;;5103830;28;20418;-65
2021/11/23 08:35:18;;;;;;;;;;;;;;;;;;5102103;28;20296;-66
2021/11/23 08:37:45;;;;;;;;;;;;;;;;;;5101252;28;19924;-67
2021/11/23 08:40:12;;;;;;;;;;;;;;;;;;5104915;27;19924;-67
2021/11/23 08:42:39;;;;;;;;;;;;;;;;;;5101905;28;19932;-68
2021/11/23 08:45:06;;;;;;;;;;;;;;;;;;5109687;28;20287;-65
2021/11/23 08:47:33;;;;;;;;;;;;;;;;;;5106809;28;19931;-67
2021/11/23 08:50:00;;;;;;;;;;;;;;;;;;5105875;28;19924;-67
2021/11/23 08:52:27;;;;;;;;;;;;;;;;;;5106204;28;19923;-66
2021/11/23 08:54:54;;;;;;;;;;;;;;;;;;5108008;27;19924;-67
2021/11/23 08:57:21;;;;;;;;;;;;;;;;;;5110989;28;20295;-67
2021/11/23 08:59:49;;;;;;;;;;;;;;;;;;5109357;27;20181;-66
2021/11/23 09:02:16;;;;;;;;;;;;;;;;;;5100036;28;20343;-67
2021/11/23 09:04:43;;;;;;;;;;;;;;;;;;5103551;28;19930;-67
2021/11/23 09:07:11;;;;;;;;;;;;;;;;;;5109996;28;19924;-65
2021/11/23 09:09:41;;;;;;;;;;;;;;;;;;5103703;27;20398;-67
2021/11/23 09:12:08;;;;;;;;;;;;;;;;;;5104103;28;19924;-66
2021/11/23 09:14:35;;;;;;;;;;;;;;;;;;5107584;28;20020;-66
2021/11/23 09:17:02;;;;;;;;;;;;;;;;;;5106654;28;19924;-66
2021/11/23 09:19:29;;;;;;;;;;;;;;;;;;5104349;27;19983;-66
2021/11/23 09:21:56;;;;;;;;;;;;;;;;;;5102671;27;19931;-65
2021/11/23 09:24:23;;;;;;;;;;;;;;;;;;5104772;28;19924;-66
2021/11/23 09:26:51;;;;;;;;;;;;;;;;;;5105107;28;19938;-66
2021/11/23 09:29:18;;;;;;;;;;;;;;;;;;5101495;28;19924;-66
2021/11/23 09:31:45;;;;;;;;;;;;;;;;;;5097320;28;19966;-66
2021/11/23 09:34:11;;;;;;;;;;;;;;;;;;5099501;28;19943;-68
2021/11/23 09:36:39;;;;;;;;;;;;;;;;;;5101175;28;19934;-67
2021/11/23 09:39:06;;;;;;;;;;;;;;;;;;5099732;28;20302;-66
2021/11/23 09:41:33;;;;;;;;;;;;;;;;;;5103725;27;20383;-65
2021/11/23 09:44:00;;;;;;;;;;;;;;;;;;5100572;27;20018;-67
2021/11/23 09:46:27;;;;;;;;;;;;;;;;;;5096319;28;20315;-66
2021/11/23 09:48:55;;;;;;;;;;;;;;;;;;5102788;28;20397;-67
2021/11/23 09:51:25;;;;;;;;;;;;;;;;;;5102652;27;19931;-67
2021/11/23 09:53:52;;;;;;;;;;;;;;;;;;5096464;28;19924;-67
2021/11/23 09:56:19;;;;;;;;;;;;;;;;;;5104509;28;20021;-67
2021/11/23 09:58:53;;;;;;;;;;;;;;;;;;5101911;28;20315;-67
2021/11/23 10:01:22;;;;;;;;;;;;;;;;;;5100319;28;19989;-67
2021/11/23 10:03:49;;;;;;;;;;;;;;;;;;5105469;28;20026;-67
2021/11/23 10:06:18;;;;;;;;;;;;;;;;;;5096136;27;19946;-67
2021/11/23 10:08:45;;;;;;;;;;;;;;;;;;5098943;28;19981;-67
2021/11/23 10:11:12;;;;;;;;;;;;;;;;;;5098982;28;19928;-68
2021/11/23 10:13:38;;;;;;;;;;;;;;;;;;5102889;28;20333;-67
2021/11/23 10:16:05;;;;;;;;;;;;;;;;;;5102278;28;19932;-67
2021/11/23 10:18:32;;;;;;;;;;;;;;;;;;5103788;28;20396;-67
2021/11/23 10:20:59;;;;;;;;;;;;;;;;;;5106244;28;19928;-67
2021/11/23 10:23:26;;;;;;;;;;;;;;;;;;5105621;28;20151;-67
2021/11/23 10:25:53;;;;;;;;;;;;;;;;;;5099423;28;19930;-66
2021/11/23 10:28:21;;;;;;;;;;;;;;;;;;5103860;28;19924;-67
2021/11/23 10:30:48;;;;;;;;;;;;;;;;;;5098355;28;19963;-65
2021/11/23 10:33:16;;;;;;;;;;;;;;;;;;5100410;28;19927;-64
2021/11/23 10:35:44;;;;;;;;;;;;;;;;;;5105149;28;19967;-66
2021/11/23 10:38:11;;;;;;;;;;;;;;;;;;5108442;28;19927;-66
2021/11/23 10:40:37;;;;;;;;;;;;;;;;;;5108817;28;20014;-66
2021/11/23 10:43:04;;;;;;;;;;;;;;;;;;5106283;28;19931;-66
2021/11/23 10:45:31;;;;;;;;;;;;;;;;;;5101380;28;20383;-67
2021/11/23 10:47:58;;;;;;;;;;;;;;;;;;5100125;28;19924;-69
2021/11/23 10:50:25;;;;;;;;;;;;;;;;;;5100518;28;19931;-64
2021/11/23 10:52:52;;;;;;;;;;;;;;;;;;5098339;28;19924;-68
2021/11/23 10:55:19;;;;;;;;;;;;;;;;;;5098595;28;19935;-68
2021/11/23 10:57:46;;;;;;;;;;;;;;;;;;5098558;28;19925;-68
2021/11/23 11:00:13;;;;;;;;;;;;;;;;;;5095919;28;19928;-68
2021/11/23 11:02:40;;;;;;;;;;;;;;;;;;5081700;28;19935;-67
2021/11/23 11:05:07;;;;;;;;;;;;;;;;;;5102017;28;19930;-68
2021/11/23 11:07:34;;;;;;;;;;;;;;;;;;5102449;28;19924;-69
2021/11/23 11:10:01;;;;;;;;;;;;;;;;;;5093333;28;20411;-68
2021/11/23 11:12:28;;;;;;;;;;;;;;;;;;5106761;28;19969;-64
2021/11/23 11:14:55;;;;;;;;;;;;;;;;;;5098731;28;19924;-67
2021/11/23 11:17:22;;;;;;;;;;;;;;;;;;5106660;28;19950;-67
2021/11/23 11:19:49;;;;;;;;;;;;;;;;;;5106083;28;20027;-69
2021/11/23 11:22:16;;;;;;;;;;;;;;;;;;5101079;28;19939;-66
2021/11/23 11:24:44;;;;;;;;;;;;;;;;;;5099374;28;20578;-66
2021/11/23 11:27:14;;;;;;;;;;;;;;;;;;5103094;28;20315;-68
2021/11/23 11:29:41;;;;;;;;;;;;;;;;;;5112828;28;19943;-67
2021/11/23 11:32:08;;;;;;;;;;;;;;;;;;5098854;28;19924;-67
2021/11/23 11:34:36;;;;;;;;;;;;;;;;;;5104129;28;20376;-66
2021/11/23 11:37:03;;;;;;;;;;;;;;;;;;5107244;28;19924;-67
2021/11/23 11:39:30;;;;;;;;;;;;;;;;;;5101462;28;20302;-68
2021/11/23 11:41:57;;;;;;;;;;;;;;;;;;5103197;28;19932;-69
2021/11/23 11:44:26;;;;;;;;;;;;;;;;;;5102361;28;19939;-68
2021/11/23 11:46:53;;;;;;;;;;;;;;;;;;5102149;28;20371;-68
2021/11/23 11:49:20;;;;;;;;;;;;;;;;;;5104436;28;19946;-66
2021/11/23 11:51:47;;;;;;;;;;;;;;;;;;5099901;28;19923;-68
2021/11/23 11:54:14;;;;;;;;;;;;;;;;;;5103430;28;19946;-68
2021/11/23 11:56:41;;;;;;;;;;;;;;;;;;5106758;28;20011;-68
2021/11/23 11:59:08;;;;;;;;;;;;;;;;;;5105457;28;19940;-65
2021/11/23 12:01:35;;;;;;;;;;;;;;;;;;5100820;28;19927;-67
2021/11/23 12:04:02;;;;;;;;;;;;;;;;;;5101959;28;20019;-67
2021/11/23 12:06:29;;;;;;;;;;;;;;;;;;5108602;28;20376;-66
2021/11/23 12:08:56;;;;;;;;;;;;;;;;;;5104738;28;19931;-70
2021/11/23 12:11:23;;;;;;;;;;;;;;;;;;5100520;28;20398;-67
2021/11/23 12:13:50;;;;;;;;;;;;;;;;;;5095516;28;19927;-66
2021/11/23 12:16:17;;;;;;;;;;;;;;;;;;5097697;28;19932;-67
2021/11/23 12:18:44;;;;;;;;;;;;;;;;;;5095455;28;19934;-68
2021/11/23 12:21:11;;;;;;;;;;;;;;;;;;5095882;28;20410;-69
2021/11/23 12:23:38;;;;;;;;;;;;;;;;;;5094518;28;19932;-67
2021/11/23 12:26:05;;;;;;;;;;;;;;;;;;5098323;28;19935;-69
2021/11/23 12:28:32;;;;;;;;;;;;;;;;;;5091793;28;19924;-67
2021/11/23 12:30:59;;;;;;;;;;;;;;;;;;5095840;28;20049;-68
2021/11/23 12:33:26;;;;;;;;;;;;;;;;;;5093179;28;20009;-67
2021/11/23 12:35:55;;;;;;;;;;;;;;;;;;5094937;28;20283;-68
2021/11/23 12:38:22;;;;;;;;;;;;;;;;;;5096857;28;19932;-68
2021/11/23 12:40:50;;;;;;;;;;;;;;;;;;5097334;28;20116;-66
2021/11/23 12:43:17;;;;;;;;;;;;;;;;;;5098055;28;19924;-66
2021/11/23 12:45:46;;;;;;;;;;;;;;;;;;5098688;28;19939;-68
2021/11/23 12:48:13;;;;;;;;;;;;;;;;;;5093685;28;20001;-65
2021/11/23 12:50:40;;;;;;;;;;;;;;;;;;5097332;28;19969;-67
2021/11/23 12:53:07;;;;;;;;;;;;;;;;;;5098714;28;19928;-67
2021/11/23 12:55:34;;;;;;;;;;;;;;;;;;5102267;28;19923;-67
2021/11/23 12:58:01;;;;;;;;;;;;;;;;;;5103260;28;19970;-69
2021/11/23 13:00:28;;;;;;;;;;;;;;;;;;5102377;28;19931;-67
2021/11/23 13:02:56;;;;;;;;;;;;;;;;;;5102423;28;19928;-67
2021/11/23 13:05:23;;;;;;;;;;;;;;;;;;5097676;28;19977;-69
2021/11/23 13:07:52;;;;;;;;;;;;;;;;;;5102362;28;19928;-67
2021/11/23 13:10:19;;;;;;;;;;;;;;;;;;5106011;28;19931;-69
2021/11/23 13:12:46;;;;;;;;;;;;;;;;;;5099163;28;19954;-67
2021/11/23 13:15:13;;;;;;;;;;;;;;;;;;5102987;28;19924;-67
2021/11/23 13:17:42;;;;;;;;;;;;;;;;;;5112986;28;20059;-67
2021/11/23 13:20:09;;;;;;;;;;;;;;;;;;5110893;28;19946;-65
2021/11/23 13:22:36;;;;;;;;;;;;;;;;;;5101990;28;20007;-68
2021/11/23 13:25:03;;;;;;;;;;;;;;;;;;5102584;28;19967;-67
2021/11/23 13:27:30;;;;;;;;;;;;;;;;;;5106151;28;19931;-67
2021/11/23 13:30:00;;;;;;;;;;;;;;;;;;5104102;28;19931;-67
2021/11/23 13:32:29;;;;;;;;;;;;;;;;;;5096912;28;20412;-65
2021/11/23 13:34:55;;;;;;;;;;;;;;;;;;5098527;27;20034;-66
2021/11/23 13:37:22;;;;;;;;;;;;;;;;;;5104994;28;19963;-66
2021/11/23 13:39:50;;;;;;;;;;;;;;;;;;5100958;28;19928;-65
2021/11/23 13:42:17;;;;;;;;;;;;;;;;;;5105625;28;20269;-68
2021/11/23 13:44:45;;;;;;;;;;;;;;;;;;5105457;28;20281;-68
2021/11/23 13:47:12;;;;;;;;;;;;;;;;;;5100834;28;19955;-68
2021/11/23 13:49:40;;;;;;;;;;;;;;;;;;5105101;27;20566;-68
2021/11/23 13:52:07;;;;;;;;;;;;;;;;;;5097282;28;21408;-67
2021/11/23 13:54:34;;;;;;;;;;;;;;;;;;5097343;28;20436;-68
2021/11/23 13:57:03;;;;;;;;;;;;;;;;;;5105175;28;19935;-67
2021/11/23 13:59:30;;;;;;;;;;;;;;;;;;5102844;28;20361;-67
2021/11/23 14:01:57;;;;;;;;;;;;;;;;;;5097219;28;19932;-65
2021/11/23 14:04:27;;;;;;;;;;;;;;;;;;5092622;28;19934;-67
2021/11/23 14:06:54;;;;;;;;;;;;;;;;;;5100361;27;19924;-69
2021/11/23 14:09:21;;;;;;;;;;;;;;;;;;5096475;28;19928;-65
2021/11/23 14:11:48;;;;;;;;;;;;;;;;;;5088421;28;19930;-67
2021/11/23 14:14:15;;;;;;;;;;;;;;;;;;5104124;28;19924;-67
2021/11/23 14:16:42;;;;;;;;;;;;;;;;;;5089195;27;19931;-68
2021/11/23 14:19:09;;;;;;;;;;;;;;;;;;5095195;27;19946;-67
2021/11/23 14:21:36;;;;;;;;;;;;;;;;;;5096699;28;19924;-70
2021/11/23 14:24:03;;;;;;;;;;;;;;;;;;5107906;28;19924;-67
2021/11/23 14:26:34;;;;;;;;;;;;;;;;;;5110710;28;19932;-67
2021/11/23 14:29:03;;;;;;;;;;;;;;;;;;5111012;28;19928;-68
2021/11/23 14:31:30;;;;;;;;;;;;;;;;;;5100951;27;20007;-66
2021/11/23 14:33:57;;;;;;;;;;;;;;;;;;5101370;27;19924;-68
2021/11/23 14:36:24;;;;;;;;;;;;;;;;;;5105340;28;19970;-67
2021/11/23 14:38:51;;;;;;;;;;;;;;;;;;5105888;28;19967;-68
2021/11/23 14:41:18;;;;;;;;;;;;;;;;;;5104806;28;20268;-67
2021/11/23 14:43:45;;;;;;;;;;;;;;;;;;5108151;28;19924;-68
2021/11/23 14:46:12;;;;;;;;;;;;;;;;;;5102543;28;19928;-67
2021/11/23 14:48:39;;;;;;;;;;;;;;;;;;5106545;28;19992;-66
2021/11/23 14:51:06;;;;;;;;;;;;;;;;;;5096943;28;19924;-69
2021/11/23 14:53:33;;;;;;;;;;;;;;;;;;5104890;28;20010;-68
2021/11/23 14:56:00;;;;;;;;;;;;;;;;;;5105881;28;19924;-67
2021/11/23 14:58:27;;;;;;;;;;;;;;;;;;5100806;28;20019;-68
2021/11/23 15:00:54;;;;;;;;;;;;;;;;;;5101315;28;19946;-66
2021/11/23 15:03:21;;;;;;;;;;;;;;;;;;5105142;28;19928;-67
2021/11/23 15:05:48;;;;;;;;;;;;;;;;;;5108340;28;19924;-67
2021/11/23 15:08:14;;;;;;;;;;;;;;;;;;5102469;28;19927;-67
2021/11/23 15:10:42;;;;;;;;;;;;;;;;;;5103126;28;19931;-66
2021/11/23 15:13:08;;;;;;;;;;;;;;;;;;5102758;28;19974;-64
2021/11/23 15:15:37;;;;;;;;;;;;;;;;;;5112355;28;19924;-65
2021/11/23 15:18:04;;;;;;;;;;;;;;;;;;5109333;28;19963;-67
2021/11/23 15:20:31;;;;;;;;;;;;;;;;;;5105583;28;19938;-67
2021/11/23 15:22:58;;;;;;;;;;;;;;;;;;5102654;28;19981;-68
2021/11/23 15:25:26;;;;;;;;;;;;;;;;;;5103696;28;20371;-68
2021/11/23 15:27:53;;;;;;;;;;;;;;;;;;5108120;28;20379;-67
2021/11/23 15:30:20;;;;;;;;;;;;;;;;;;5102000;28;19931;-67
2021/11/23 15:32:47;;;;;;;;;;;;;;;;;;5102512;28;19977;-67
2021/11/23 15:35:14;;;;;;;;;;;;;;;;;;5095211;28;20217;-66
2021/11/23 15:37:41;;;;;;;;;;;;;;;;;;5102878;28;19931;-68
2021/11/23 15:40:08;;;;;;;;;;;;;;;;;;5101383;28;19992;-67
2021/11/23 15:42:35;;;;;;;;;;;;;;;;;;5098811;28;19932;-68
2021/11/23 15:45:02;;;;;;;;;;;;;;;;;;5104929;28;19987;-66
2021/11/23 15:47:30;;;;;;;;;;;;;;;;;;5096099;28;19924;-68
2021/11/23 15:49:57;;;;;;;;;;;;;;;;;;5097255;27;20363;-68
2021/11/23 15:52:25;;;;;;;;;;;;;;;;;;5097929;28;19923;-68
2021/11/23 15:54:53;;;;;;;;;;;;;;;;;;5097573;28;19978;-68
2021/11/23 15:57:22;;;;;;;;;;;;;;;;;;5093747;28;20384;-67
2021/11/23 15:59:50;;;;;;;;;;;;;;;;;;5107180;28;19928;-66
2021/11/23 16:02:16;;;;;;;;;;;;;;;;;;5102261;28;21078;-70
2021/11/23 16:04:44;;;;;;;;;;;;;;;;;;5092370;28;20166;-68
2021/11/23 16:07:11;;;;;;;;;;;;;;;;;;5093912;28;19924;-68
2021/11/23 16:09:37;;;;;;;;;;;;;;;;;;5091079;28;19958;-68
2021/11/23 16:12:04;;;;;;;;;;;;;;;;;;5104373;28;20268;-67
2021/11/23 16:14:31;;;;;;;;;;;;;;;;;;5105691;28;19935;-66
2021/11/23 16:16:58;;;;;;;;;;;;;;;;;;5100540;28;19987;-67
2021/11/23 16:19:26;;;;;;;;;;;;;;;;;;5099827;28;20323;-68
2021/11/23 16:21:53;;;;;;;;;;;;;;;;;;5103086;28;20023;-68
2021/11/23 16:24:20;;;;;;;;;;;;;;;;;;5109130;28;20019;-67
2021/11/23 16:26:47;;;;;;;;;;;;;;;;;;5104315;28;20406;-68
2021/11/23 16:29:15;;;;;;;;;;;;;;;;;;5105886;28;19987;-68
2021/11/23 16:31:42;;;;;;;;;;;;;;;;;;5102058;28;20334;-67
2021/11/23 16:34:09;;;;;;;;;;;;;;;;;;5096676;22;19924;-66
2021/11/23 16:36:36;;;;;;;;;;;;;;;;;;5055979;28;19936;-69
2021/11/23 16:39:03;;;;;;;;;;;;;;;;;;5062481;28;19939;-66
2021/11/23 16:41:30;;;;;;;;;;;;;;;;;;5060252;28;19925;-67
2021/11/23 16:43:57;;;;;;;;;;;;;;;;;;5047309;28;19925;-66